createdAt,value
2023-01-29T00:02:01.463Z,4.41
2023-01-29T00:04:30.430Z,4.40
2023-01-29T00:06:58.179Z,4.40
2023-01-29T00:09:25.745Z,4.39
2023-01-29T00:11:53.315Z,4.40
2023-01-29T00:14:21.165Z,4.39
2023-01-29T00:16:48.767Z,4.37
2023-01-29T00:19:17.446Z,4.38
2023-01-29T00:21:46.754Z,4.38
2023-01-29T00:24:14.418Z,4.33
2023-01-29T00:26:43.139Z,4.32
2023-01-29T00:29:11.041Z,4.35
2023-01-29T00:31:39.103Z,4.34
2023-01-29T00:34:06.723Z,4.34
2023-01-29T00:36:34.334Z,4.32
2023-01-29T00:39:10.813Z,4.30
2023-01-29T00:41:56.586Z,4.27
2023-01-29T00:44:41.607Z,4.26
2023-01-29T00:47:29.901Z,4.26
2023-01-29T00:49:58.182Z,4.24
2023-01-29T00:52:25.857Z,4.23
2023-01-29T00:54:56.642Z,4.22
2023-01-29T00:57:25.000Z,4.20
2023-01-29T00:59:52.703Z,4.20
2023-01-29T01:02:38.202Z,4.20
2023-01-29T01:05:10.281Z,4.19
2023-01-29T01:07:37.862Z,4.20
2023-01-29T01:10:21.953Z,4.22
2023-01-29T01:12:51.995Z,4.22
2023-01-29T01:15:20.159Z,4.25
2023-01-29T01:17:48.836Z,4.27
2023-01-29T01:20:17.024Z,4.27
2023-01-29T01:22:44.801Z,4.28
2023-01-29T01:25:13.968Z,4.31
2023-01-29T01:27:41.930Z,4.33
2023-01-29T01:30:12.590Z,4.36
2023-01-29T01:32:40.882Z,4.38
2023-01-29T01:35:09.842Z,4.38
2023-01-29T01:37:38.694Z,4.38
2023-01-29T01:40:12.650Z,4.37
2023-01-29T01:42:41.848Z,4.33
2023-01-29T01:45:20.565Z,4.32
2023-01-29T01:47:51.572Z,4.28
2023-01-29T01:50:23.567Z,4.25
2023-01-29T01:52:56.645Z,4.21
2023-01-29T01:55:27.815Z,4.16
2023-01-29T01:58:00.887Z,4.10
2023-01-29T02:00:28.879Z,4.04
2023-01-29T02:03:14.178Z,3.97
2023-01-29T02:06:00.523Z,3.90
2023-01-29T02:08:54.485Z,3.83
2023-01-29T02:11:22.190Z,3.80
2023-01-29T02:13:53.669Z,3.79
2023-01-29T02:16:22.081Z,3.80
2023-01-29T02:18:50.958Z,3.75
2023-01-29T02:21:46.308Z,3.77
2023-01-29T02:24:55.447Z,3.77
2023-01-29T02:27:28.261Z,3.76
2023-01-29T02:30:04.437Z,3.74
2023-01-29T02:32:40.401Z,3.77
2023-01-29T02:35:29.704Z,3.74
2023-01-29T02:38:06.516Z,3.80
2023-01-29T02:40:41.347Z,3.83
2023-01-29T02:43:18.853Z,3.85
2023-01-29T02:45:52.831Z,3.86
2023-01-29T02:48:23.301Z,3.85
2023-01-29T02:50:59.432Z,3.81
2023-01-29T02:53:33.595Z,3.79
2023-01-29T02:56:08.713Z,3.76
2023-01-29T02:58:42.740Z,3.75
2023-01-29T03:01:16.762Z,3.75
2023-01-29T03:03:48.846Z,3.77
2023-01-29T03:06:22.363Z,3.77
2023-01-29T03:08:56.275Z,3.77
2023-01-29T03:11:24.359Z,3.77
2023-01-29T03:13:57.758Z,3.77
2023-01-29T03:16:34.252Z,3.79
2023-01-29T03:19:06.581Z,3.78
2023-01-29T03:21:55.008Z,3.81
2023-01-29T03:24:52.332Z,3.83
2023-01-29T03:27:41.629Z,3.83
2023-01-29T03:30:31.313Z,3.84
2023-01-29T03:33:04.562Z,3.87
2023-01-29T03:35:37.485Z,3.88
2023-01-29T03:38:05.879Z,3.90
2023-01-29T03:40:40.213Z,3.91
2023-01-29T03:43:15.072Z,3.94
2023-01-29T03:45:55.054Z,3.95
2023-01-29T03:48:33.797Z,3.97
2023-01-29T03:51:11.825Z,3.99
2023-01-29T03:53:44.986Z,3.99
2023-01-29T03:56:26.363Z,4.00
2023-01-29T03:58:59.992Z,4.02
2023-01-29T04:01:34.443Z,4.02
2023-01-29T04:04:10.426Z,4.06
2023-01-29T04:06:41.421Z,4.07
2023-01-29T04:09:14.707Z,4.08
2023-01-29T04:11:46.719Z,4.11
2023-01-29T04:14:15.523Z,4.12
2023-01-29T04:16:48.292Z,4.13
2023-01-29T04:19:17.922Z,4.16
2023-01-29T04:21:49.428Z,4.17
2023-01-29T04:24:18.061Z,4.15
2023-01-29T04:26:57.091Z,4.16
2023-01-29T04:29:38.828Z,4.16
2023-01-29T04:32:15.828Z,4.13
2023-01-29T04:34:56.695Z,4.15
2023-01-29T04:37:36.205Z,4.16
2023-01-29T04:40:16.201Z,4.15
2023-01-29T04:42:51.135Z,4.17
2023-01-29T04:45:25.258Z,4.16
2023-01-29T04:48:06.220Z,4.17
2023-01-29T04:50:39.564Z,4.16
2023-01-29T04:53:16.424Z,4.16
2023-01-29T04:55:50.661Z,4.17
2023-01-29T04:58:27.372Z,4.17
2023-01-29T05:00:56.059Z,4.17
2023-01-29T05:03:27.625Z,4.18
2023-01-29T05:05:59.168Z,4.20
2023-01-29T05:08:29.652Z,4.22
2023-01-29T05:10:58.743Z,4.21
2023-01-29T05:13:29.281Z,4.22
2023-01-29T05:16:01.378Z,4.24
2023-01-29T05:18:30.301Z,4.25
2023-01-29T05:21:03.141Z,4.24
2023-01-29T05:23:30.945Z,4.29
2023-01-29T05:25:59.110Z,4.28
2023-01-29T05:28:25.778Z,4.28
2023-01-29T05:30:56.065Z,4.30
2023-01-29T05:33:27.629Z,4.31
2023-01-29T05:35:56.152Z,4.33
2023-01-29T05:38:25.117Z,4.32
2023-01-29T05:40:52.790Z,4.33
2023-01-29T05:43:22.180Z,4.35
2023-01-29T05:45:54.386Z,4.38
2023-01-29T05:48:22.024Z,4.41
2023-01-29T05:50:49.964Z,4.42
2023-01-29T05:53:17.655Z,4.42
2023-01-29T05:55:47.872Z,4.40
2023-01-29T05:58:15.599Z,4.41
2023-01-29T06:00:43.190Z,4.44
2023-01-29T06:03:10.871Z,4.44
2023-01-29T06:05:39.348Z,4.45
2023-01-29T06:08:08.390Z,4.46
2023-01-29T06:10:36.382Z,4.47
2023-01-29T06:13:05.391Z,4.47
2023-01-29T06:15:33.055Z,4.51
2023-01-29T06:18:00.742Z,4.55
2023-01-29T06:20:28.468Z,4.54
2023-01-29T06:22:56.221Z,4.59
2023-01-29T06:25:23.960Z,4.60
2023-01-29T06:27:51.792Z,4.64
2023-01-29T06:30:21.101Z,4.63
2023-01-29T06:32:48.721Z,4.66
2023-01-29T06:35:16.382Z,4.65
2023-01-29T06:37:44.039Z,4.68
2023-01-29T06:40:13.016Z,4.66
2023-01-29T06:42:40.579Z,4.66
2023-01-29T06:45:09.660Z,4.69
2023-01-29T06:47:38.599Z,4.68
2023-01-29T06:50:06.903Z,4.71
2023-01-29T06:52:34.494Z,4.70
2023-01-29T06:55:02.076Z,4.70
2023-01-29T06:57:29.989Z,4.69
2023-01-29T06:59:57.864Z,4.71
2023-01-29T07:02:25.515Z,4.69
2023-01-29T07:04:54.692Z,4.71
2023-01-29T07:07:22.288Z,4.69
2023-01-29T07:09:49.865Z,4.66
2023-01-29T07:12:18.273Z,4.66
2023-01-29T07:14:45.952Z,4.66
2023-01-29T07:17:13.646Z,4.67
2023-01-29T07:19:41.436Z,4.65
2023-01-29T07:22:10.373Z,4.65
2023-01-29T07:24:38.032Z,4.63
2023-01-29T07:27:05.720Z,4.61
2023-01-29T07:29:33.305Z,4.63
2023-01-29T07:32:01.345Z,4.66
2023-01-29T07:34:29.100Z,4.68
2023-01-29T07:36:56.825Z,4.67
2023-01-29T07:39:25.921Z,4.70
2023-01-29T07:41:53.505Z,4.72
2023-01-29T07:44:21.100Z,4.74
2023-01-29T07:46:48.699Z,4.77
2023-01-29T07:49:16.738Z,4.82
2023-01-29T07:51:44.399Z,4.80
2023-01-29T07:54:12.607Z,4.80
2023-01-29T07:56:41.659Z,4.85
2023-01-29T07:59:09.279Z,4.83
2023-01-29T08:01:36.874Z,4.84
2023-01-29T08:04:04.532Z,4.88
2023-01-29T08:06:32.246Z,4.95
2023-01-29T08:08:59.879Z,4.98
2023-01-29T08:11:27.573Z,5.03
2023-01-29T08:13:57.393Z,5.04
2023-01-29T08:16:24.996Z,5.10
2023-01-29T08:18:52.574Z,5.09
2023-01-29T08:21:20.211Z,5.07
2023-01-29T08:23:47.804Z,5.11
2023-01-29T08:26:15.447Z,5.12
2023-01-29T08:28:43.066Z,5.15
2023-01-29T08:31:16.420Z,5.18
2023-01-29T08:33:44.045Z,5.18
2023-01-29T08:36:11.832Z,5.23
2023-01-29T08:38:39.814Z,5.25
2023-01-29T08:41:08.434Z,5.27
2023-01-29T08:43:36.961Z,5.27
2023-01-29T08:46:05.860Z,5.31
2023-01-29T08:48:35.601Z,5.29
2023-01-29T08:51:04.525Z,5.29
2023-01-29T08:53:32.677Z,5.31
2023-01-29T08:56:00.318Z,5.34
2023-01-29T08:58:28.115Z,5.38
2023-01-29T09:00:55.731Z,5.36
2023-01-29T09:03:23.319Z,5.40
2023-01-29T09:05:52.252Z,5.43
2023-01-29T09:08:19.853Z,5.45
2023-01-29T09:10:47.536Z,5.50
2023-01-29T09:13:15.176Z,5.62
2023-01-29T09:15:42.788Z,5.64
2023-01-29T09:18:10.440Z,5.65
2023-01-29T09:20:38.823Z,5.72
2023-01-29T09:23:09.800Z,5.80
2023-01-29T09:25:38.476Z,5.92
2023-01-29T09:28:07.141Z,5.97
2023-01-29T09:30:37.639Z,6.03
2023-01-29T09:33:05.782Z,6.00
2023-01-29T09:35:33.781Z,5.92
2023-01-29T09:38:02.160Z,5.89
2023-01-29T09:40:36.525Z,5.89
2023-01-29T09:43:07.615Z,5.93
2023-01-29T09:45:36.796Z,5.92
2023-01-29T09:48:06.732Z,5.94
2023-01-29T09:50:39.961Z,6.00
2023-01-29T09:53:18.348Z,6.04
2023-01-29T09:55:51.340Z,6.05
2023-01-29T09:58:23.826Z,5.99
2023-01-29T10:01:00.304Z,5.98
2023-01-29T10:03:44.662Z,5.99
2023-01-29T10:06:30.435Z,5.99
2023-01-29T10:09:24.768Z,5.91
2023-01-29T10:12:00.847Z,5.84
2023-01-29T10:14:40.575Z,5.83
2023-01-29T10:17:25.142Z,5.86
2023-01-29T10:20:07.957Z,5.84
2023-01-29T10:23:01.258Z,5.99
2023-01-29T10:25:29.082Z,6.00
2023-01-29T10:28:01.351Z,6.03
2023-01-29T10:30:33.315Z,6.03
2023-01-29T10:33:04.268Z,6.01
2023-01-29T10:35:35.796Z,6.02
2023-01-29T10:38:19.580Z,6.17
2023-01-29T10:40:54.072Z,6.36
2023-01-29T10:43:30.549Z,6.48
2023-01-29T10:46:13.247Z,6.44
2023-01-29T10:48:50.279Z,6.38
2023-01-29T10:51:31.978Z,6.24
2023-01-29T10:54:13.242Z,6.17
2023-01-29T10:56:57.083Z,6.07
2023-01-29T10:59:40.453Z,5.97
2023-01-29T11:02:16.155Z,5.92
2023-01-29T11:04:43.807Z,5.89
2023-01-29T11:07:12.628Z,5.84
2023-01-29T11:09:44.878Z,5.79
2023-01-29T11:12:15.283Z,5.80
2023-01-29T11:14:51.635Z,5.77
2023-01-29T11:17:20.768Z,5.76
2023-01-29T11:19:51.157Z,5.72
2023-01-29T11:22:20.828Z,5.66
2023-01-29T11:25:07.678Z,5.53
2023-01-29T11:27:40.783Z,5.47
2023-01-29T11:30:17.615Z,5.45
2023-01-29T11:32:45.669Z,5.38
2023-01-29T11:35:22.629Z,5.38
2023-01-29T11:37:50.325Z,5.50
2023-01-29T11:40:36.718Z,5.63
2023-01-29T11:43:19.952Z,5.76
2023-01-29T11:45:51.072Z,5.78
2023-01-29T11:48:20.842Z,5.72
2023-01-29T11:50:58.355Z,5.69
2023-01-29T11:53:37.192Z,5.69
2023-01-29T11:56:17.550Z,5.64
2023-01-29T11:58:46.702Z,5.62
2023-01-29T12:01:19.139Z,5.58
2023-01-29T12:03:51.894Z,5.68
2023-01-29T12:06:22.993Z,5.74
2023-01-29T12:08:57.015Z,5.89
2023-01-29T12:11:30.542Z,5.92
2023-01-29T12:14:00.774Z,5.89
2023-01-29T12:16:34.451Z,5.85
2023-01-29T12:19:12.046Z,5.81
2023-01-29T12:21:48.030Z,5.70
2023-01-29T12:24:30.388Z,5.73
2023-01-29T12:27:08.483Z,5.67
2023-01-29T12:29:44.559Z,5.59
2023-01-29T12:32:27.322Z,5.57
2023-01-29T12:35:02.659Z,5.52
2023-01-29T12:37:41.750Z,5.51
2023-01-29T12:40:14.825Z,5.50
2023-01-29T12:42:47.054Z,5.45
2023-01-29T12:45:19.050Z,5.48
2023-01-29T12:47:52.959Z,5.51
2023-01-29T12:50:23.014Z,5.63
2023-01-29T12:52:54.777Z,5.57
2023-01-29T12:55:25.294Z,5.62
2023-01-29T12:57:57.843Z,5.70
2023-01-29T13:00:28.261Z,5.68
2023-01-29T13:03:01.600Z,5.66
2023-01-29T13:05:35.512Z,5.69
2023-01-29T13:08:09.337Z,5.65
2023-01-29T13:10:39.808Z,5.66
2023-01-29T13:13:15.725Z,5.57
2023-01-29T13:15:45.231Z,5.63
2023-01-29T13:18:33.067Z,5.61
2023-01-29T13:21:01.930Z,5.65
2023-01-29T13:23:34.800Z,5.61
2023-01-29T13:26:02.724Z,5.63
2023-01-29T13:28:31.555Z,5.61
2023-01-29T13:31:28.142Z,5.68
2023-01-29T13:34:08.462Z,5.72
2023-01-29T13:36:42.260Z,5.68
2023-01-29T13:39:20.694Z,5.71
2023-01-29T13:41:48.741Z,5.68
2023-01-29T13:44:23.496Z,5.70
2023-01-29T13:46:56.893Z,5.68
2023-01-29T13:49:38.614Z,5.71
2023-01-29T13:52:18.484Z,5.74
2023-01-29T13:54:54.005Z,5.73
2023-01-29T13:57:55.670Z,5.80
2023-01-29T14:00:58.009Z,5.76
2023-01-29T14:04:02.200Z,5.79
2023-01-29T14:06:47.980Z,5.78
2023-01-29T14:09:55.330Z,5.71
2023-01-29T14:12:43.665Z,5.69
2023-01-29T14:15:29.773Z,5.68
2023-01-29T14:18:13.398Z,5.72
2023-01-29T14:20:51.509Z,5.75
2023-01-29T14:23:48.236Z,5.78
2023-01-29T14:26:29.686Z,5.79
2023-01-29T14:29:05.831Z,5.76
2023-01-29T14:31:42.574Z,5.73
2023-01-29T14:34:19.150Z,5.78
2023-01-29T14:36:50.342Z,5.77
2023-01-29T14:39:29.115Z,5.76
2023-01-29T14:41:58.397Z,5.70
2023-01-29T14:44:49.265Z,5.67
2023-01-29T14:47:21.270Z,5.65
2023-01-29T14:49:50.468Z,5.61
2023-01-29T14:52:21.019Z,5.60
2023-01-29T14:54:52.322Z,5.59
2023-01-29T14:57:21.152Z,5.56
2023-01-29T14:59:55.379Z,5.54
2023-01-29T15:02:27.643Z,5.56
2023-01-29T15:04:59.629Z,5.53
2023-01-29T15:07:33.122Z,5.47
2023-01-29T15:10:21.885Z,5.46
2023-01-29T15:12:55.743Z,5.42
2023-01-29T15:15:37.412Z,5.40
2023-01-29T15:18:09.863Z,5.38
2023-01-29T15:20:38.890Z,5.31
2023-01-29T15:23:25.303Z,5.27
2023-01-29T15:25:57.641Z,5.20
2023-01-29T15:28:25.500Z,5.23
2023-01-29T15:30:56.948Z,5.23
2023-01-29T15:33:24.697Z,5.20
2023-01-29T15:36:06.797Z,5.21
2023-01-29T15:38:35.269Z,5.22
2023-01-29T15:41:15.946Z,5.25
2023-01-29T15:43:47.391Z,5.25
2023-01-29T15:46:22.048Z,5.25
2023-01-29T15:48:51.169Z,5.29
2023-01-29T15:51:21.703Z,5.28
2023-01-29T15:53:52.894Z,5.30
2023-01-29T15:56:27.810Z,5.32
2023-01-29T15:58:58.656Z,5.32
2023-01-29T16:01:27.784Z,5.29
2023-01-29T16:03:59.062Z,5.28
2023-01-29T16:06:36.642Z,5.26
2023-01-29T16:09:05.912Z,5.28
2023-01-29T16:11:35.627Z,5.26
2023-01-29T16:14:05.705Z,5.28
2023-01-29T16:16:33.407Z,5.28
2023-01-29T16:19:01.630Z,5.26
2023-01-29T16:21:33.231Z,5.24
2023-01-29T16:24:03.597Z,5.22
2023-01-29T16:26:35.174Z,5.20
2023-01-29T16:29:08.339Z,5.20
2023-01-29T16:31:37.458Z,5.21
2023-01-29T16:34:10.260Z,5.21
2023-01-29T16:36:38.143Z,5.23
2023-01-29T16:39:15.478Z,5.23
2023-01-29T16:41:44.082Z,5.22
2023-01-29T16:44:39.223Z,5.21
2023-01-29T16:47:12.823Z,5.21
2023-01-29T16:49:45.540Z,5.23
2023-01-29T16:52:20.148Z,5.24
2023-01-29T16:54:47.736Z,5.22
2023-01-29T16:57:19.539Z,5.25
2023-01-29T16:59:48.664Z,5.26
2023-01-29T17:02:24.547Z,5.29
2023-01-29T17:04:53.538Z,5.29
2023-01-29T17:07:22.254Z,5.33
2023-01-29T17:09:52.432Z,5.29
2023-01-29T17:12:22.644Z,5.28
2023-01-29T17:14:56.588Z,5.28
2023-01-29T17:17:30.564Z,5.28
2023-01-29T17:19:58.905Z,5.26
2023-01-29T17:22:26.495Z,5.27
2023-01-29T17:24:54.112Z,5.27
2023-01-29T17:27:23.677Z,5.22
2023-01-29T17:29:52.699Z,5.25
2023-01-29T17:32:22.534Z,5.24
2023-01-29T17:34:51.388Z,5.24
2023-01-29T17:37:20.046Z,5.23
2023-01-29T17:39:50.416Z,5.26
2023-01-29T17:42:18.231Z,5.24
2023-01-29T17:44:46.156Z,5.24
2023-01-29T17:47:15.524Z,5.23
2023-01-29T17:49:44.638Z,5.23
2023-01-29T17:52:12.322Z,5.27
2023-01-29T17:54:39.954Z,5.25
2023-01-29T17:57:07.609Z,5.22
2023-01-29T17:59:35.386Z,5.21
2023-01-29T18:02:03.121Z,5.20
2023-01-29T18:04:30.725Z,5.16
2023-01-29T18:06:59.829Z,5.15
2023-01-29T18:09:27.954Z,5.13
2023-01-29T18:11:55.616Z,5.15
2023-01-29T18:14:23.478Z,5.16
2023-01-29T18:16:51.094Z,5.17
2023-01-29T18:19:23.171Z,5.12
2023-01-29T18:21:52.388Z,5.14
2023-01-29T18:24:21.942Z,5.13
2023-01-29T18:26:51.001Z,5.10
2023-01-29T18:29:18.666Z,5.13
2023-01-29T18:31:49.403Z,5.13
2023-01-29T18:34:17.081Z,5.09
2023-01-29T18:36:47.588Z,5.12
2023-01-29T18:39:15.362Z,5.12
2023-01-29T18:41:44.583Z,5.10
2023-01-29T18:44:12.267Z,5.09
2023-01-29T18:46:39.876Z,5.03
2023-01-29T18:49:07.593Z,5.09
2023-01-29T18:51:35.352Z,5.03
2023-01-29T18:54:03.919Z,5.03
2023-01-29T18:56:31.583Z,4.99
2023-01-29T18:59:00.592Z,4.96
2023-01-29T19:01:28.258Z,4.93
2023-01-29T19:03:56.059Z,4.94
2023-01-29T19:06:23.646Z,4.95
2023-01-29T19:08:51.251Z,4.89
2023-01-29T19:11:18.867Z,4.89
2023-01-29T19:13:47.930Z,4.92
2023-01-29T19:16:16.922Z,4.89
2023-01-29T19:18:44.558Z,4.90
2023-01-29T19:21:14.982Z,4.90
2023-01-29T19:23:44.502Z,4.85
2023-01-29T19:26:13.625Z,4.86
2023-01-29T19:28:42.244Z,4.83
2023-01-29T19:31:11.816Z,4.81
2023-01-29T19:33:41.488Z,4.80
2023-01-29T19:36:09.782Z,4.80
2023-01-29T19:38:38.723Z,4.79
2023-01-29T19:41:06.771Z,4.81
2023-01-29T19:43:34.675Z,4.81
2023-01-29T19:46:02.905Z,4.82
2023-01-29T19:48:30.940Z,4.81
2023-01-29T19:51:01.519Z,4.82
2023-01-29T19:53:29.988Z,4.82
2023-01-29T19:55:58.992Z,4.81
2023-01-29T19:58:26.917Z,4.83
2023-01-29T20:00:56.116Z,4.83
2023-01-29T20:03:23.956Z,4.83
2023-01-29T20:05:52.079Z,4.83
2023-01-29T20:08:21.023Z,4.89
2023-01-29T20:10:49.733Z,4.89
2023-01-29T20:13:17.367Z,4.91
2023-01-29T20:15:46.552Z,4.93
2023-01-29T20:18:14.937Z,4.95
2023-01-29T20:20:44.846Z,4.99
2023-01-29T20:23:13.331Z,5.01
2023-01-29T20:25:42.537Z,5.03
2023-01-29T20:28:13.172Z,5.08
2023-01-29T20:30:42.045Z,5.08
2023-01-29T20:33:12.972Z,5.09
2023-01-29T20:35:40.763Z,5.14
2023-01-29T20:38:08.475Z,5.16
2023-01-29T20:40:36.050Z,5.19
2023-01-29T20:43:05.198Z,5.20
2023-01-29T20:45:36.089Z,5.20
2023-01-29T20:48:06.355Z,5.22
2023-01-29T20:50:34.610Z,5.23
2023-01-29T20:53:02.602Z,5.28
2023-01-29T20:55:31.489Z,5.26
2023-01-29T20:58:06.239Z,5.25
2023-01-29T21:00:36.005Z,5.23
2023-01-29T21:03:03.768Z,5.25
2023-01-29T21:05:31.483Z,5.24
2023-01-29T21:07:59.127Z,5.26
2023-01-29T21:10:26.874Z,5.25
2023-01-29T21:12:54.548Z,5.24
2023-01-29T21:15:23.308Z,5.25
2023-01-29T21:17:52.634Z,5.24
2023-01-29T21:20:20.560Z,5.25
2023-01-29T21:22:49.062Z,5.26
2023-01-29T21:25:20.083Z,5.27
2023-01-29T21:27:47.734Z,5.30
2023-01-29T21:30:15.812Z,5.27
2023-01-29T21:32:43.720Z,5.26
2023-01-29T21:35:12.831Z,5.26
2023-01-29T21:37:40.432Z,5.26
2023-01-29T21:40:10.464Z,5.27
2023-01-29T21:42:55.852Z,5.27
2023-01-29T21:45:23.440Z,5.28
2023-01-29T21:47:51.450Z,5.26
2023-01-29T21:50:20.719Z,5.28
2023-01-29T21:52:48.358Z,5.21
2023-01-29T21:55:16.681Z,5.22
2023-01-29T21:57:46.640Z,5.28
2023-01-29T22:00:15.218Z,5.22
2023-01-29T22:02:43.138Z,5.23
2023-01-29T22:05:18.604Z,5.21
2023-01-29T22:07:49.266Z,5.21
2023-01-29T22:10:18.731Z,5.24
2023-01-29T22:12:47.161Z,5.25
2023-01-29T22:15:16.223Z,5.23
2023-01-29T22:17:44.135Z,5.21
2023-01-29T22:20:14.184Z,5.21
2023-01-29T22:22:42.007Z,5.23
2023-01-29T22:25:11.562Z,5.21
2023-01-29T22:27:39.628Z,5.23
2023-01-29T22:30:08.617Z,5.23
2023-01-29T22:32:36.327Z,5.26
2023-01-29T22:35:04.067Z,5.27
2023-01-29T22:37:31.638Z,5.27
2023-01-29T22:39:59.199Z,5.28
2023-01-29T22:42:28.256Z,5.27
2023-01-29T22:44:55.920Z,5.30
2023-01-29T22:47:23.524Z,5.27
2023-01-29T22:49:52.354Z,5.32
2023-01-29T22:52:22.156Z,5.31
2023-01-29T22:54:51.425Z,5.31
2023-01-29T22:57:19.278Z,5.33
2023-01-29T22:59:48.303Z,5.36
2023-01-29T23:02:15.970Z,5.38
2023-01-29T23:04:43.568Z,5.36
2023-01-29T23:07:11.503Z,5.36
2023-01-29T23:09:39.083Z,5.40
2023-01-29T23:12:07.882Z,5.39
2023-01-29T23:14:35.476Z,5.43
2023-01-29T23:17:04.453Z,5.43
2023-01-29T23:19:32.076Z,5.45
2023-01-29T23:21:59.725Z,5.45
2023-01-29T23:24:27.418Z,5.46
2023-01-29T23:27:12.537Z,5.47
2023-01-29T23:29:40.111Z,5.45
2023-01-29T23:32:09.174Z,5.44
2023-01-29T23:34:36.782Z,5.44
2023-01-29T23:37:04.446Z,5.43
2023-01-29T23:39:32.245Z,5.40
2023-01-29T23:42:00.185Z,5.41
2023-01-29T23:44:27.880Z,5.39
2023-01-29T23:46:55.803Z,5.40
2023-01-29T23:49:24.761Z,5.41
2023-01-29T23:51:52.555Z,5.42
2023-01-29T23:54:20.314Z,5.43
2023-01-29T23:56:47.926Z,5.45
2023-01-29T23:59:16.010Z,5.42
